| Date | Time | Temp. (oF) | Dew Point (oF) | Rel. Hum. (%) | Press. (in.) | Wind Dir. | Wind Speed (mph) | Hourly Rainfall (in.) |
|
|---|---|---|---|---|---|---|---|---|---|
| 1 | 07/03 | 00:00 | 69 | 66 | 91 | 29.98 | SW | 0 | 0.00 |
| 2 | 07/02 | 23:00 | 71 | 64 | 81 | 29.97 | SSW | 0 | 0.00 |
| 3 | 07/02 | 22:00 | 74 | 62 | 68 | 29.97 | SW | 0 | 0.00 |
| 4 | 07/02 | 21:00 | 79 | 59 | 52 | 29.95 | NNW | 0 | 0.00 |
| 5 | 07/02 | 20:00 | 84 | 57 | 41 | 29.94 | NNE | 0 | 0.00 |
| 6 | 07/02 | 19:00 | 88 | 56 | 35 | 29.93 | NNE | 3 | 0.00 |
| 7 | 07/02 | 18:00 | 87 | 54 | 34 | 29.93 | N | 7 | 0.00 |
| 8 | 07/02 | 17:00 | 88 | 56 | 35 | 29.94 | NW | 3 | 0.00 |
| 9 | 07/02 | 16:00 | 88 | 55 | 34 | 29.96 | NNE | 4 | 0.00 |
| 10 | 07/02 | 15:00 | 89 | 56 | 34 | 29.96 | NNE | 7 | 0.00 |
| 11 | 07/02 | 14:00 | 87 | 57 | 37 | 29.97 | NNE | 5 | 0.00 |
| 12 | 07/02 | 13:00 | 87 | 58 | 39 | 29.98 | NW | 6 | 0.00 |
| 13 | 07/02 | 12:00 | 86 | 57 | 38 | 29.98 | NNE | 11 | 0.00 |
| 14 | 07/02 | 11:00 | 84 | 57 | 41 | 29.99 | NW | 7 | 0.00 |
| 15 | 07/02 | 10:00 | 82 | 63 | 53 | 29.99 | NW | 8 | 0.00 |
| 16 | 07/02 | 09:00 | 79 | 65 | 63 | 29.98 | N | 2 | 0.00 |
| 17 | 07/02 | 08:00 | 75 | 69 | 82 | 29.97 | NNE | 3 | 0.00 |
| 18 | 07/02 | 07:00 | 70 | 67 | 93 | 29.96 | W | 2 | 0.00 |
| 19 | 07/02 | 06:00 | 70 | 66 | 90 | 29.95 | WSW | 1 | 0.00 |
| 20 | 07/02 | 05:00 | 72 | 66 | 84 | 29.94 | SW | 2 | 0.00 |
| 21 | 07/02 | 04:00 | 73 | 67 | 82 | 29.95 | WSW | 6 | 0.00 |
| 22 | 07/02 | 03:00 | 74 | 69 | 85 | 29.92 | WNW | 0 | 0.00 |
| 23 | 07/02 | 02:00 | 72 | 70 | 94 | 29.92 | S | 0 | 0.00 |
| 24 | 07/02 | 01:00 | 73 | 69 | 88 | 29.92 | NE | 0 | 0.00 |